createdAt,value
2023-03-13T00:00:53.008Z,0.00
2023-03-13T00:01:53.110Z,0.00
2023-03-13T00:02:52.951Z,0.00
2023-03-13T00:03:52.961Z,0.00
2023-03-13T00:04:53.090Z,0.00
2023-03-13T00:05:52.926Z,0.00
2023-03-13T00:06:52.933Z,0.00
2023-03-13T00:07:52.919Z,0.00
2023-03-13T00:08:52.900Z,0.00
2023-03-13T00:09:52.881Z,0.00
2023-03-13T00:10:52.875Z,0.00
2023-03-13T00:11:52.903Z,0.00
2023-03-13T00:12:52.845Z,0.00
2023-03-13T00:13:52.859Z,0.00
2023-03-13T00:14:52.833Z,0.00
2023-03-13T00:15:52.893Z,0.00
2023-03-13T00:16:52.829Z,0.00
2023-03-13T00:17:52.774Z,0.00
2023-03-13T00:18:52.811Z,0.00
2023-03-13T00:19:52.748Z,0.00
2023-03-13T00:20:52.759Z,0.00
2023-03-13T00:21:52.758Z,0.00
2023-03-13T00:22:52.720Z,0.00
2023-03-13T00:23:52.715Z,0.00
2023-03-13T00:24:52.726Z,0.00
2023-03-13T00:25:52.708Z,0.00
2023-03-13T00:26:52.680Z,0.00
2023-03-13T00:27:52.661Z,0.00
2023-03-13T00:28:52.660Z,0.00
2023-03-13T00:29:52.668Z,0.00
2023-03-13T00:30:52.676Z,0.00
2023-03-13T00:31:52.643Z,0.00
2023-03-13T00:32:52.638Z,0.00
2023-03-13T00:33:52.638Z,0.00
2023-03-13T00:34:52.577Z,0.00
2023-03-13T00:35:52.616Z,0.00
2023-03-13T00:36:52.551Z,0.00
2023-03-13T00:37:52.659Z,0.00
2023-03-13T00:38:52.530Z,0.00
2023-03-13T00:39:52.533Z,0.00
2023-03-13T00:40:52.514Z,0.00
2023-03-13T00:41:52.562Z,0.00
2023-03-13T00:42:52.509Z,0.00
2023-03-13T00:43:52.478Z,0.00
2023-03-13T00:44:52.482Z,0.00
2023-03-13T00:45:52.512Z,0.00
2023-03-13T00:46:52.442Z,0.00
2023-03-13T00:47:52.469Z,0.00
2023-03-13T00:48:52.430Z,0.00
2023-03-13T00:49:52.402Z,0.00
2023-03-13T00:50:52.392Z,0.00
2023-03-13T00:51:52.389Z,0.00
2023-03-13T00:52:52.374Z,0.00
2023-03-13T00:53:52.402Z,0.00
2023-03-13T00:54:52.380Z,0.00
2023-03-13T00:55:52.382Z,0.00
2023-03-13T00:56:52.333Z,0.00
2023-03-13T00:57:52.322Z,0.00
2023-03-13T00:58:52.346Z,0.00
2023-03-13T00:59:52.333Z,0.00
2023-03-13T01:00:52.278Z,0.00
2023-03-13T01:01:52.261Z,0.00
2023-03-13T01:02:52.372Z,0.00
2023-03-13T01:03:52.245Z,0.00
2023-03-13T01:04:52.274Z,0.00
2023-03-13T01:05:52.233Z,0.00
2023-03-13T01:06:52.214Z,0.00
2023-03-13T01:07:52.205Z,0.00
2023-03-13T01:08:52.198Z,0.00
2023-03-13T01:09:52.200Z,0.00
2023-03-13T01:10:52.289Z,0.00
2023-03-13T01:11:52.197Z,0.00
2023-03-13T01:12:52.157Z,0.00
2023-03-13T01:13:52.143Z,0.00
2023-03-13T01:14:52.174Z,0.00
2023-03-13T01:15:52.209Z,0.00
2023-03-13T01:16:52.152Z,0.00
2023-03-13T01:17:52.139Z,0.00
2023-03-13T01:18:52.099Z,0.00
2023-03-13T01:19:52.075Z,0.00
2023-03-13T01:20:52.078Z,0.00
2023-03-13T01:21:52.122Z,0.00
2023-03-13T01:22:52.120Z,0.00
2023-03-13T01:23:52.025Z,0.00
2023-03-13T01:24:52.015Z,0.00
2023-03-13T01:25:52.023Z,0.00
2023-03-13T01:26:51.993Z,0.00
2023-03-13T01:27:51.990Z,0.00
2023-03-13T01:28:51.988Z,0.00
2023-03-13T01:29:51.968Z,0.00
2023-03-13T01:30:52.001Z,0.00
2023-03-13T01:31:51.939Z,0.00
2023-03-13T01:32:51.964Z,0.00
2023-03-13T01:33:51.929Z,0.00
2023-03-13T01:34:51.935Z,0.00
2023-03-13T01:35:51.927Z,0.00
2023-03-13T01:36:51.906Z,0.00
2023-03-13T01:37:51.867Z,0.00
2023-03-13T01:38:51.858Z,0.00
2023-03-13T01:39:51.850Z,0.00
2023-03-13T01:40:51.855Z,0.00
2023-03-13T01:41:51.845Z,0.00
2023-03-13T01:42:51.821Z,0.00
2023-03-13T01:43:51.805Z,0.00
2023-03-13T01:44:51.805Z,0.00
2023-03-13T01:45:51.827Z,0.00
2023-03-13T01:46:51.860Z,0.00
2023-03-13T01:47:51.819Z,0.00
2023-03-13T01:48:51.766Z,0.00
2023-03-13T01:49:51.729Z,0.00
2023-03-13T01:50:51.730Z,0.00
2023-03-13T01:51:51.733Z,0.00
2023-03-13T01:52:51.701Z,0.00
2023-03-13T01:53:51.707Z,0.00
2023-03-13T01:54:51.725Z,0.00
2023-03-13T01:55:51.679Z,0.00
2023-03-13T01:56:51.853Z,0.00
2023-03-13T01:57:51.639Z,0.00
2023-03-13T01:58:51.625Z,0.00
2023-03-13T01:59:51.623Z,0.00
2023-03-13T02:00:51.603Z,0.00
2023-03-13T02:01:51.634Z,0.00
2023-03-13T02:02:51.810Z,0.00
2023-03-13T02:03:51.598Z,0.00
2023-03-13T02:04:51.551Z,0.00
2023-03-13T02:05:51.544Z,0.00
2023-03-13T02:06:51.544Z,0.00
2023-03-13T02:07:51.541Z,0.00
2023-03-13T02:08:51.568Z,0.00
2023-03-13T02:09:51.517Z,0.00
2023-03-13T02:10:51.482Z,0.00
2023-03-13T02:11:51.493Z,0.00
2023-03-13T02:12:51.516Z,0.00
2023-03-13T02:13:51.462Z,0.00
2023-03-13T02:14:51.493Z,0.00
2023-03-13T02:15:51.487Z,0.00
2023-03-13T02:16:51.423Z,0.00
2023-03-13T02:17:51.424Z,0.00
2023-03-13T02:18:51.390Z,0.00
2023-03-13T02:19:51.380Z,0.00
2023-03-13T02:20:51.390Z,0.00
2023-03-13T02:21:51.398Z,0.00
2023-03-13T02:22:51.332Z,0.00
2023-03-13T02:23:51.321Z,0.00
2023-03-13T02:24:51.320Z,0.00
2023-03-13T02:25:51.315Z,0.00
2023-03-13T02:26:51.335Z,0.00
2023-03-13T02:27:51.282Z,0.00
2023-03-13T02:28:51.272Z,0.00
2023-03-13T02:29:51.272Z,0.00
2023-03-13T02:30:51.251Z,0.00
2023-03-13T02:31:51.297Z,0.00
2023-03-13T02:32:51.352Z,0.00
2023-03-13T02:33:51.210Z,0.00
2023-03-13T02:34:51.201Z,0.00
2023-03-13T02:35:51.269Z,0.00
2023-03-13T02:36:51.184Z,0.00
2023-03-13T02:37:51.172Z,0.00
2023-03-13T02:38:51.204Z,0.00
2023-03-13T02:39:51.153Z,0.00
2023-03-13T02:40:51.134Z,0.00
2023-03-13T02:41:51.127Z,0.00
2023-03-13T02:42:51.108Z,0.00
2023-03-13T02:43:51.113Z,0.00
2023-03-13T02:44:51.119Z,0.00
2023-03-13T02:45:51.079Z,0.00
2023-03-13T02:46:51.103Z,0.00
2023-03-13T02:47:51.059Z,0.00
2023-03-13T02:48:51.076Z,0.00
2023-03-13T02:49:51.160Z,0.00
2023-03-13T02:50:51.028Z,0.00
2023-03-13T02:51:51.009Z,0.00
2023-03-13T02:52:51.026Z,0.00
2023-03-13T02:53:51.168Z,0.00
2023-03-13T02:54:50.988Z,0.00
2023-03-13T02:55:50.983Z,0.00
2023-03-13T02:56:50.950Z,0.00
2023-03-13T02:57:50.963Z,0.00
2023-03-13T02:58:50.929Z,0.00
2023-03-13T02:59:50.932Z,0.00
2023-03-13T03:00:50.939Z,0.00
2023-03-13T03:01:50.926Z,0.00
2023-03-13T03:02:50.898Z,0.00
2023-03-13T03:03:50.894Z,0.00
2023-03-13T03:04:50.865Z,0.00
2023-03-13T03:05:50.860Z,0.00
2023-03-13T03:06:50.873Z,0.00
2023-03-13T03:07:50.836Z,0.00
2023-03-13T03:08:50.838Z,0.00
2023-03-13T03:09:50.805Z,0.00
2023-03-13T03:10:50.800Z,0.00
2023-03-13T03:11:50.789Z,0.00
2023-03-13T03:12:50.836Z,0.00
2023-03-13T03:13:50.755Z,0.00
2023-03-13T03:14:50.758Z,0.00
2023-03-13T03:15:50.740Z,0.00
2023-03-13T03:16:50.810Z,0.00
2023-03-13T03:17:50.723Z,0.00
2023-03-13T03:18:50.748Z,0.00
2023-03-13T03:19:50.688Z,0.00
2023-03-13T03:20:50.694Z,0.00
2023-03-13T03:21:50.669Z,0.00
2023-03-13T03:22:50.674Z,0.00
2023-03-13T03:23:50.643Z,0.00
2023-03-13T03:24:50.653Z,0.00
2023-03-13T03:25:50.625Z,0.00
2023-03-13T03:26:50.611Z,0.00
2023-03-13T03:27:50.603Z,0.00
2023-03-13T03:28:50.603Z,0.00
2023-03-13T03:29:50.615Z,0.00
2023-03-13T03:30:50.577Z,0.00
2023-03-13T03:31:50.580Z,0.00
2023-03-13T03:32:50.572Z,0.00
2023-03-13T03:33:50.558Z,0.00
2023-03-13T03:34:50.512Z,0.00
2023-03-13T03:35:50.992Z,0.00
2023-03-13T03:36:50.492Z,0.00
2023-03-13T03:37:50.479Z,0.00
2023-03-13T03:38:50.497Z,0.00
2023-03-13T03:39:50.460Z,0.00
2023-03-13T03:40:50.452Z,0.00
2023-03-13T03:41:50.472Z,0.00
2023-03-13T03:42:50.503Z,0.00
2023-03-13T03:43:50.465Z,0.00
2023-03-13T03:44:50.390Z,0.00
2023-03-13T03:45:50.416Z,0.00
2023-03-13T03:46:50.612Z,0.00
2023-03-13T03:47:50.600Z,0.00
2023-03-13T03:48:50.369Z,0.00
2023-03-13T03:49:50.364Z,0.00
2023-03-13T03:50:50.339Z,0.00
2023-03-13T03:51:50.332Z,0.00
2023-03-13T03:52:50.327Z,0.00
2023-03-13T03:53:50.323Z,0.00
2023-03-13T03:54:50.296Z,0.00
2023-03-13T03:55:50.285Z,0.00
2023-03-13T03:56:50.266Z,0.00
2023-03-13T03:57:50.255Z,0.00
2023-03-13T03:58:50.251Z,0.00
2023-03-13T03:59:50.257Z,0.00
2023-03-13T04:00:50.244Z,0.00
2023-03-13T04:01:50.260Z,0.00
2023-03-13T04:02:50.200Z,0.00
2023-03-13T04:03:50.191Z,0.00
2023-03-13T04:04:50.178Z,0.00
2023-03-13T04:05:50.226Z,0.00
2023-03-13T04:06:50.161Z,0.00
2023-03-13T04:07:50.150Z,0.00
2023-03-13T04:08:50.139Z,0.00
2023-03-13T04:09:50.134Z,0.00
2023-03-13T04:10:50.110Z,0.00
2023-03-13T04:11:50.144Z,0.00
2023-03-13T04:12:50.090Z,0.00
2023-03-13T04:13:50.099Z,0.00
2023-03-13T04:14:50.070Z,0.00
2023-03-13T04:15:50.075Z,0.00
2023-03-13T04:16:50.169Z,0.00
2023-03-13T04:17:50.043Z,0.00
2023-03-13T04:18:50.016Z,0.00
2023-03-13T04:19:50.020Z,0.00
2023-03-13T04:20:49.999Z,0.00
2023-03-13T04:21:49.986Z,0.00
2023-03-13T04:22:50.022Z,0.00
2023-03-13T04:23:49.969Z,0.00
2023-03-13T04:24:49.974Z,0.00
2023-03-13T04:25:49.944Z,0.00
2023-03-13T04:26:49.976Z,0.00
2023-03-13T04:27:49.923Z,0.00
2023-03-13T04:28:49.980Z,0.00
2023-03-13T04:29:49.895Z,0.00
2023-03-13T04:30:49.932Z,0.00
2023-03-13T04:31:49.868Z,0.00
2023-03-13T04:32:49.933Z,0.00
2023-03-13T04:33:49.863Z,0.00
2023-03-13T04:34:49.986Z,0.00
2023-03-13T04:35:49.860Z,0.00
2023-03-13T04:36:49.805Z,0.00
2023-03-13T04:37:49.807Z,0.00
2023-03-13T04:38:49.786Z,0.00
2023-03-13T04:39:49.789Z,0.00
2023-03-13T04:40:49.805Z,0.00
2023-03-13T04:41:49.758Z,0.00
2023-03-13T04:42:49.746Z,0.00
2023-03-13T04:43:49.841Z,0.00
2023-03-13T04:44:49.782Z,0.00
2023-03-13T04:45:49.780Z,0.00
2023-03-13T04:46:49.722Z,0.00
2023-03-13T04:47:49.699Z,0.00
2023-03-13T04:48:49.679Z,0.00
2023-03-13T04:49:49.660Z,0.00
2023-03-13T04:50:49.681Z,0.00
2023-03-13T04:51:49.688Z,0.00
2023-03-13T04:52:49.774Z,0.00
2023-03-13T04:53:49.619Z,0.00
2023-03-13T04:54:49.615Z,0.00
2023-03-13T04:55:49.593Z,0.00
2023-03-13T04:56:49.580Z,0.00
2023-03-13T04:57:49.592Z,0.00
2023-03-13T04:58:49.578Z,0.00
2023-03-13T04:59:49.559Z,0.00
2023-03-13T05:00:49.541Z,0.00
2023-03-13T05:01:49.555Z,0.00
2023-03-13T05:02:49.558Z,0.00
2023-03-13T05:03:49.538Z,0.00
2023-03-13T05:04:52.064Z,0.00
2023-03-13T05:05:49.490Z,0.00
2023-03-13T05:06:49.497Z,0.00
2023-03-13T05:07:49.457Z,0.00
2023-03-13T05:08:49.495Z,0.00
2023-03-13T05:09:49.447Z,0.00
2023-03-13T05:10:49.421Z,0.00
2023-03-13T05:11:49.424Z,0.00
2023-03-13T05:12:49.427Z,0.00
2023-03-13T05:13:49.382Z,0.00
2023-03-13T05:14:49.408Z,0.00
2023-03-13T05:15:49.451Z,0.00
2023-03-13T05:16:49.384Z,0.00
2023-03-13T05:17:49.358Z,0.00
2023-03-13T05:18:49.346Z,0.00
2023-03-13T05:19:49.355Z,0.00
2023-03-13T05:20:49.466Z,0.00
2023-03-13T05:21:49.304Z,0.00
2023-03-13T05:22:49.283Z,0.00
2023-03-13T05:23:49.314Z,0.00
2023-03-13T05:24:49.353Z,0.00
2023-03-13T05:25:49.291Z,0.00
2023-03-13T05:26:49.248Z,0.00
2023-03-13T05:27:49.238Z,0.00
2023-03-13T05:28:49.234Z,0.00
2023-03-13T05:29:49.195Z,0.00
2023-03-13T05:30:49.250Z,4.00
2023-03-13T05:31:49.221Z,4.00
2023-03-13T05:32:49.187Z,0.00
2023-03-13T05:33:49.164Z,4.00
2023-03-13T05:34:49.147Z,4.00
2023-03-13T05:35:49.206Z,4.00
2023-03-13T05:36:49.116Z,4.00
2023-03-13T05:37:49.619Z,8.00
2023-03-13T05:38:49.127Z,8.00
2023-03-13T05:39:49.083Z,12.00
2023-03-13T05:40:49.087Z,12.00
2023-03-13T05:41:49.058Z,8.00
2023-03-13T05:42:49.054Z,12.00
2023-03-13T05:43:49.106Z,16.00
2023-03-13T05:44:49.028Z,12.00
2023-03-13T05:45:49.038Z,16.00
2023-03-13T05:46:49.085Z,16.00
2023-03-13T05:47:49.004Z,20.00
2023-03-13T05:48:49.016Z,20.00
2023-03-13T05:49:48.990Z,20.00
2023-03-13T05:50:49.015Z,20.00
2023-03-13T05:51:48.968Z,32.00
2023-03-13T05:52:48.948Z,44.00
2023-03-13T05:53:48.920Z,48.00
2023-03-13T05:54:48.945Z,56.00
2023-03-13T05:55:48.922Z,68.00
2023-03-13T05:56:48.907Z,72.00
2023-03-13T05:57:48.965Z,80.00
2023-03-13T05:58:48.855Z,80.00
2023-03-13T05:59:48.853Z,92.00
2023-03-13T06:00:48.906Z,100.00
2023-03-13T06:01:48.828Z,116.00
2023-03-13T06:02:48.806Z,124.00
2023-03-13T06:03:48.945Z,128.00
2023-03-13T06:04:48.918Z,128.00
2023-03-13T06:05:48.783Z,140.00
2023-03-13T06:06:48.804Z,156.00
2023-03-13T06:07:48.765Z,176.00
2023-03-13T06:08:48.793Z,212.00
2023-03-13T06:09:48.743Z,248.00
2023-03-13T06:10:48.752Z,272.00
2023-03-13T06:11:48.735Z,288.00
2023-03-13T06:12:48.780Z,312.00
2023-03-13T06:13:48.707Z,328.00
2023-03-13T06:14:48.678Z,324.00
2023-03-13T06:15:48.826Z,312.00
2023-03-13T06:16:48.683Z,336.00
2023-03-13T06:17:48.702Z,328.00
2023-03-13T06:18:48.699Z,308.00
2023-03-13T06:19:48.629Z,328.00
2023-03-13T06:20:48.599Z,332.00
2023-03-13T06:21:48.590Z,332.00
2023-03-13T06:22:48.652Z,324.00
2023-03-13T06:23:48.579Z,320.00
2023-03-13T06:24:48.583Z,308.00
2023-03-13T06:25:48.572Z,264.00
2023-03-13T06:26:49.624Z,236.00
2023-03-13T06:27:48.556Z,204.00
2023-03-13T06:28:48.498Z,204.00
2023-03-13T06:29:48.501Z,188.00
2023-03-13T06:30:48.576Z,176.00
2023-03-13T06:31:48.587Z,168.00
2023-03-13T06:32:48.543Z,168.00
2023-03-13T06:33:49.748Z,188.00
2023-03-13T06:34:48.461Z,192.00
2023-03-13T06:35:56.257Z,216.00
2023-03-13T06:36:49.453Z,252.00
2023-03-13T06:37:48.400Z,300.00
2023-03-13T06:38:48.381Z,332.00
2023-03-13T06:39:48.403Z,312.00
2023-03-13T06:40:48.363Z,284.00
2023-03-13T06:41:48.372Z,276.00
2023-03-13T06:42:48.453Z,312.00
2023-03-13T06:43:48.327Z,332.00
2023-03-13T06:44:48.319Z,300.00
2023-03-13T06:45:48.348Z,260.00
2023-03-13T06:46:48.333Z,240.00
2023-03-13T06:47:48.281Z,224.00
2023-03-13T06:48:48.359Z,220.00
2023-03-13T06:49:48.326Z,232.00
2023-03-13T06:50:48.250Z,236.00
2023-03-13T06:51:48.241Z,232.00
2023-03-13T06:52:48.241Z,232.00
2023-03-13T06:53:48.265Z,224.00
2023-03-13T06:54:48.210Z,232.00
2023-03-13T06:55:48.227Z,240.00
2023-03-13T06:56:48.183Z,260.00
2023-03-13T06:57:48.166Z,300.00
2023-03-13T06:58:48.151Z,312.00
2023-03-13T06:59:48.182Z,312.00
2023-03-13T07:00:48.143Z,380.00
2023-03-13T07:01:48.128Z,440.00
2023-03-13T07:02:48.112Z,480.00
2023-03-13T07:03:48.324Z,496.00
2023-03-13T07:04:48.085Z,480.00
2023-03-13T07:05:48.132Z,452.00
2023-03-13T07:06:48.085Z,460.00
2023-03-13T07:07:48.059Z,440.00
2023-03-13T07:08:48.057Z,448.00
2023-03-13T07:09:48.030Z,464.00
2023-03-13T07:10:48.060Z,468.00
2023-03-13T07:11:48.015Z,500.00
2023-03-13T07:12:48.000Z,520.00
2023-03-13T07:13:47.993Z,456.00
2023-03-13T07:14:47.972Z,448.00
2023-03-13T07:15:47.950Z,448.00
2023-03-13T07:16:48.090Z,452.00
2023-03-13T07:17:47.930Z,480.00
2023-03-13T07:18:47.928Z,476.00
2023-03-13T07:19:47.912Z,436.00
2023-03-13T07:20:47.904Z,432.00
2023-03-13T07:21:47.987Z,468.00
2023-03-13T07:22:47.905Z,492.00
2023-03-13T07:23:47.872Z,480.00
2023-03-13T07:24:48.005Z,532.00
2023-03-13T07:25:47.863Z,576.00
2023-03-13T07:27:03.470Z,548.00
2023-03-13T07:27:48.861Z,484.00
2023-03-13T07:28:47.837Z,460.00
2023-03-13T07:29:47.812Z,456.00
2023-03-13T07:30:47.786Z,460.00
2023-03-13T07:31:47.801Z,472.00
2023-03-13T07:32:47.865Z,488.00
2023-03-13T07:33:47.786Z,512.00
2023-03-13T07:34:47.744Z,532.00
2023-03-13T07:35:47.749Z,496.00
2023-03-13T07:36:47.712Z,484.00
2023-03-13T07:37:47.715Z,544.00
2023-03-13T07:38:47.697Z,736.00
2023-03-13T07:39:47.764Z,952.00
2023-03-13T07:40:47.665Z,1056.00
2023-03-13T07:41:47.657Z,1204.00
2023-03-13T07:42:47.651Z,1276.00
2023-03-13T07:43:47.659Z,1376.00
2023-03-13T07:44:47.616Z,1316.00
2023-03-13T07:45:47.695Z,1380.00
2023-03-13T07:46:47.606Z,1500.00
2023-03-13T07:47:47.608Z,1380.00
2023-03-13T07:48:47.576Z,1320.00
2023-03-13T07:49:47.557Z,1204.00
2023-03-13T07:50:47.547Z,1164.00
2023-03-13T07:51:47.603Z,1072.00
2023-03-13T07:52:47.550Z,1028.00
2023-03-13T07:53:47.532Z,1000.00
2023-03-13T07:54:47.497Z,948.00
2023-03-13T07:55:47.487Z,964.00
2023-03-13T07:56:47.502Z,972.00
2023-03-13T07:57:47.534Z,988.00
2023-03-13T07:58:47.473Z,1096.00
2023-03-13T07:59:47.449Z,1168.00
2023-03-13T08:00:47.499Z,1120.00
2023-03-13T08:01:47.491Z,1100.00
2023-03-13T08:02:47.420Z,1252.00
2023-03-13T08:03:47.515Z,1364.00
2023-03-13T08:04:47.433Z,1296.00
2023-03-13T08:05:47.469Z,1220.00
2023-03-13T08:06:47.380Z,1104.00
2023-03-13T08:07:47.361Z,976.00
2023-03-13T08:08:47.345Z,876.00
2023-03-13T08:09:47.419Z,840.00
2023-03-13T08:10:47.320Z,896.00
2023-03-13T08:11:47.309Z,848.00
2023-03-13T08:12:47.304Z,840.00
2023-03-13T08:13:47.279Z,792.00
2023-03-13T08:14:47.326Z,716.00
2023-03-13T08:15:47.278Z,680.00
2023-03-13T08:16:47.322Z,668.00
2023-03-13T08:17:47.245Z,648.00
2023-03-13T08:18:47.329Z,632.00
2023-03-13T08:19:47.213Z,668.00
2023-03-13T08:20:47.247Z,804.00
2023-03-13T08:21:47.179Z,940.00
2023-03-13T08:22:47.177Z,952.00
2023-03-13T08:23:47.157Z,1000.00
2023-03-13T08:24:47.148Z,1012.00
2023-03-13T08:25:47.144Z,1012.00
2023-03-13T08:26:47.158Z,1080.00
2023-03-13T08:27:47.127Z,1096.00
2023-03-13T08:28:47.112Z,1140.00
2023-03-13T08:29:47.087Z,1140.00
2023-03-13T08:30:47.152Z,1168.00
2023-03-13T08:31:47.097Z,1152.00
2023-03-13T08:32:47.099Z,1064.00
2023-03-13T08:33:47.060Z,1100.00
2023-03-13T08:34:47.037Z,1116.00
2023-03-13T08:35:47.079Z,1088.00
2023-03-13T08:36:47.019Z,1056.00
2023-03-13T08:37:47.029Z,1036.00
2023-03-13T08:38:47.021Z,1016.00
2023-03-13T08:39:46.990Z,992.00
2023-03-13T08:40:46.972Z,984.00
2023-03-13T08:41:46.965Z,972.00
2023-03-13T08:42:46.950Z,944.00
2023-03-13T08:43:47.003Z,928.00
2023-03-13T08:44:46.919Z,968.00
2023-03-13T08:45:46.959Z,1024.00
2023-03-13T08:46:46.918Z,1076.00
2023-03-13T08:47:46.887Z,1088.00
2023-03-13T08:48:46.888Z,1072.00
2023-03-13T08:49:46.882Z,1036.00
2023-03-13T08:50:46.905Z,1032.00
2023-03-13T08:51:46.852Z,1060.00
2023-03-13T08:52:46.825Z,1072.00
2023-03-13T08:53:46.818Z,1036.00
2023-03-13T08:54:46.827Z,932.00
2023-03-13T08:55:46.810Z,892.00
2023-03-13T08:56:46.812Z,804.00
2023-03-13T08:57:46.788Z,740.00
2023-03-13T08:58:46.757Z,644.00
2023-03-13T08:59:46.748Z,596.00
2023-03-13T09:00:46.868Z,596.00
2023-03-13T09:01:46.743Z,632.00
2023-03-13T09:02:46.794Z,644.00
2023-03-13T09:03:46.824Z,712.00
2023-03-13T09:04:46.699Z,768.00
2023-03-13T09:06:47.746Z,1072.00
2023-03-13T09:07:46.652Z,1468.00
2023-03-13T09:08:46.649Z,1728.00
2023-03-13T09:09:46.654Z,1824.00
2023-03-13T09:10:46.625Z,1716.00
2023-03-13T09:11:46.605Z,1516.00
2023-03-13T09:12:46.634Z,1344.00
2023-03-13T09:13:46.595Z,1300.00
2023-03-13T09:14:46.564Z,1316.00
2023-03-13T09:15:46.632Z,1468.00
2023-03-13T09:16:46.543Z,1648.00
2023-03-13T09:17:46.556Z,1880.00
2023-03-13T09:18:46.591Z,2168.00
2023-03-13T09:19:59.445Z,2304.00
2023-03-13T09:20:48.998Z,2596.00
2023-03-13T09:21:46.535Z,3008.00
2023-03-13T09:22:46.484Z,3668.00
2023-03-13T09:23:46.505Z,3840.00
2023-03-13T09:24:46.548Z,4100.00
2023-03-13T09:25:46.444Z,3820.00
2023-03-13T09:27:00.171Z,3404.00
2023-03-13T09:27:47.429Z,3420.00
2023-03-13T09:28:46.416Z,3112.00
2023-03-13T09:29:46.409Z,3036.00
2023-03-13T09:30:46.476Z,2932.00
2023-03-13T09:31:46.424Z,2800.00
2023-03-13T09:32:46.384Z,2768.00
2023-03-13T09:33:46.366Z,2960.00
2023-03-13T09:34:46.362Z,3204.00
2023-03-13T09:35:46.338Z,3488.00
2023-03-13T09:36:46.383Z,3688.00
2023-03-13T09:37:46.307Z,3964.00
2023-03-13T09:38:46.297Z,4208.00
2023-03-13T09:39:46.330Z,4020.00
2023-03-13T09:40:59.795Z,4052.00
2023-03-13T09:41:47.287Z,3740.00
2023-03-13T09:42:46.274Z,3604.00
2023-03-13T09:43:46.255Z,3320.00
2023-03-13T09:44:46.219Z,3420.00
2023-03-13T09:45:46.209Z,3500.00
2023-03-13T09:46:46.326Z,3284.00
2023-03-13T09:47:46.210Z,3348.00
2023-03-13T09:48:46.177Z,3240.00
2023-03-13T09:49:46.169Z,3296.00
2023-03-13T09:50:47.532Z,3368.00
2023-03-13T09:51:46.150Z,3588.00
2023-03-13T09:52:46.164Z,3428.00
2023-03-13T09:53:46.122Z,3396.00
2023-03-13T09:54:46.125Z,3264.00
2023-03-13T09:55:46.104Z,3212.00
2023-03-13T09:56:46.085Z,3104.00
2023-03-13T09:57:46.106Z,2928.00
2023-03-13T09:58:46.076Z,2896.00
2023-03-13T09:59:46.064Z,2804.00
2023-03-13T10:00:46.022Z,2532.00
2023-03-13T10:01:46.050Z,2460.00
2023-03-13T10:02:46.022Z,2516.00
2023-03-13T10:03:46.048Z,2768.00
2023-03-13T10:04:46.048Z,2908.00
2023-03-13T10:05:45.969Z,2716.00
2023-03-13T10:06:45.988Z,2780.00
2023-03-13T10:07:45.942Z,2760.00
2023-03-13T10:08:45.961Z,2832.00
2023-03-13T10:09:45.950Z,3436.00
2023-03-13T10:10:45.911Z,3548.00
2023-03-13T10:11:45.930Z,3860.00
2023-03-13T10:12:45.878Z,3932.00
2023-03-13T10:13:45.887Z,3852.00
2023-03-13T10:14:45.858Z,4032.00
2023-03-13T10:15:45.934Z,5008.00
2023-03-13T10:16:45.835Z,5732.00
2023-03-13T10:17:45.870Z,4084.00
2023-03-13T10:18:45.811Z,3676.00
2023-03-13T10:19:45.812Z,4392.00
2023-03-13T10:20:45.793Z,4720.00
2023-03-13T10:21:45.815Z,5152.00
2023-03-13T10:22:45.777Z,5128.00
2023-03-13T10:23:45.778Z,4792.00
2023-03-13T10:24:45.762Z,4448.00
2023-03-13T10:25:45.731Z,4400.00
2023-03-13T10:26:45.727Z,4472.00
2023-03-13T10:27:45.821Z,4460.00
2023-03-13T10:28:45.702Z,4332.00
2023-03-13T10:29:45.689Z,4268.00
2023-03-13T10:30:45.682Z,4264.00
2023-03-13T10:31:45.716Z,4268.00
2023-03-13T10:32:45.707Z,4300.00
2023-03-13T10:33:45.630Z,4420.00
2023-03-13T10:34:45.645Z,4460.00
2023-03-13T10:35:45.628Z,4548.00
2023-03-13T10:36:45.593Z,4496.00
2023-03-13T10:37:45.588Z,4156.00
2023-03-13T10:38:45.647Z,3792.00
2023-03-13T10:39:45.568Z,3520.00
2023-03-13T10:40:45.554Z,3228.00
2023-03-13T10:41:45.535Z,3088.00
2023-03-13T10:42:45.546Z,3252.00
2023-03-13T10:43:45.505Z,3240.00
2023-03-13T10:44:45.531Z,3520.00
2023-03-13T10:45:45.498Z,3820.00
2023-03-13T10:46:45.575Z,4644.00
2023-03-13T10:47:45.523Z,4396.00
2023-03-13T10:48:45.466Z,4156.00
2023-03-13T10:49:45.486Z,3728.00
2023-03-13T10:50:45.450Z,3324.00
2023-03-13T10:51:45.407Z,3208.00
2023-03-13T10:52:45.452Z,3168.00
2023-03-13T10:53:45.429Z,3064.00
2023-03-13T10:54:45.389Z,2928.00
2023-03-13T10:55:45.401Z,2796.00
2023-03-13T10:56:45.361Z,2608.00
2023-03-13T10:57:45.401Z,2564.00
2023-03-13T10:58:45.361Z,2484.00
2023-03-13T10:59:45.319Z,2376.00
2023-03-13T11:00:45.311Z,2580.00
2023-03-13T11:01:45.322Z,2652.00
2023-03-13T11:02:45.360Z,2784.00
2023-03-13T11:03:45.311Z,2756.00
2023-03-13T11:04:45.255Z,2572.00
2023-03-13T11:05:45.285Z,2664.00
2023-03-13T11:06:45.262Z,2808.00
2023-03-13T11:07:45.240Z,3324.00
2023-03-13T11:08:45.348Z,3880.00
2023-03-13T11:09:45.203Z,3712.00
2023-03-13T11:10:45.191Z,3440.00
2023-03-13T11:11:45.218Z,3420.00
2023-03-13T11:12:45.184Z,3532.00
2023-03-13T11:13:45.164Z,3656.00
2023-03-13T11:14:45.160Z,3624.00
2023-03-13T11:15:45.165Z,3428.00
2023-03-13T11:16:45.143Z,3444.00
2023-03-13T11:17:45.138Z,3800.00
2023-03-13T11:18:45.141Z,4156.00
2023-03-13T11:19:45.085Z,4068.00
2023-03-13T11:20:45.137Z,3876.00
2023-03-13T11:21:45.066Z,3520.00
2023-03-13T11:22:45.044Z,3324.00
2023-03-13T11:23:45.037Z,3000.00
2023-03-13T11:24:45.067Z,2808.00
2023-03-13T11:25:45.006Z,2624.00
2023-03-13T11:26:55.148Z,2608.00
2023-03-13T11:27:45.993Z,2616.00
2023-03-13T11:28:44.982Z,2540.00
2023-03-13T11:29:45.058Z,2312.00
2023-03-13T11:30:44.992Z,2252.00
2023-03-13T11:31:45.039Z,2064.00
2023-03-13T11:32:44.966Z,1980.00
2023-03-13T11:33:44.936Z,1884.00
2023-03-13T11:34:44.919Z,1832.00
2023-03-13T11:35:44.987Z,1752.00
2023-03-13T11:36:44.972Z,1760.00
2023-03-13T11:37:44.869Z,1892.00
2023-03-13T11:38:44.868Z,2016.00
2023-03-13T11:39:44.976Z,2192.00
2023-03-13T11:40:44.828Z,2244.00
2023-03-13T11:41:44.890Z,2348.00
2023-03-13T11:42:44.942Z,2292.00
2023-03-13T11:43:44.783Z,2300.00
2023-03-13T11:44:44.781Z,2120.00
2023-03-13T11:45:44.833Z,1960.00
2023-03-13T11:46:44.983Z,1972.00
2023-03-13T11:47:44.750Z,2304.00
2023-03-13T11:48:44.897Z,2484.00
2023-03-13T11:49:44.761Z,2472.00
2023-03-13T11:50:44.776Z,2480.00
2023-03-13T11:51:44.721Z,2500.00
2023-03-13T11:52:44.735Z,2672.00
2023-03-13T11:53:44.689Z,2988.00
2023-03-13T11:54:44.678Z,3264.00
2023-03-13T11:55:44.651Z,3176.00
2023-03-13T11:56:44.647Z,3308.00
2023-03-13T11:57:44.624Z,3252.00
2023-03-13T11:58:44.635Z,2916.00
2023-03-13T11:59:44.655Z,2660.00
2023-03-13T12:00:44.646Z,2636.00
2023-03-13T12:01:46.651Z,2860.00
2023-03-13T12:02:44.813Z,3188.00
2023-03-13T12:03:44.633Z,3348.00
2023-03-13T12:04:44.700Z,3272.00
2023-03-13T12:05:44.579Z,3000.00
2023-03-13T12:06:44.647Z,2704.00
2023-03-13T12:07:44.506Z,2496.00
2023-03-13T12:08:44.537Z,2576.00
2023-03-13T12:09:44.503Z,2848.00
2023-03-13T12:10:44.505Z,2876.00
2023-03-13T12:11:44.467Z,2668.00
2023-03-13T12:12:44.477Z,2392.00
2023-03-13T12:13:44.525Z,2216.00
2023-03-13T12:14:44.419Z,2088.00
2023-03-13T12:15:44.405Z,1940.00
2023-03-13T12:16:44.485Z,1672.00
2023-03-13T12:17:44.453Z,1476.00
2023-03-13T12:18:44.450Z,1376.00
2023-03-13T12:19:44.369Z,1360.00
2023-03-13T12:20:44.379Z,1292.00
2023-03-13T12:21:44.416Z,1276.00
2023-03-13T12:22:44.325Z,1232.00
2023-03-13T12:23:44.396Z,1080.00
2023-03-13T12:24:44.286Z,976.00
2023-03-13T12:25:44.431Z,928.00
2023-03-13T12:26:44.304Z,928.00
2023-03-13T12:27:44.323Z,1048.00
2023-03-13T12:28:44.640Z,1148.00
2023-03-13T12:29:44.251Z,1200.00
2023-03-13T12:30:44.271Z,1208.00
2023-03-13T12:31:44.251Z,1220.00
2023-03-13T12:32:44.297Z,1244.00
2023-03-13T12:33:44.268Z,1184.00
2023-03-13T12:34:44.217Z,1260.00
2023-03-13T12:35:44.175Z,1328.00
2023-03-13T12:36:44.188Z,1264.00
2023-03-13T12:37:44.155Z,1200.00
2023-03-13T12:38:44.316Z,1156.00
2023-03-13T12:39:44.166Z,1128.00
2023-03-13T12:40:44.127Z,1212.00
2023-03-13T12:41:44.110Z,1376.00
2023-03-13T12:42:44.113Z,1528.00
2023-03-13T12:43:46.395Z,1428.00